sensor_id;sensor_type;location;lat;lon;timestamp;pressure;altitude;pressure_sealevel;temperature;humidity
40285;BME280;25997;50.214;19.354;2023-04-28T00:01:54;98236.28;;;6.13;39.80
40285;BME280;25997;50.214;19.354;2023-04-28T00:04:58;98228.88;;;6.22;39.69
40285;BME280;25997;50.214;19.354;2023-04-28T00:08:00;98227.22;;;6.24;39.57
40285;BME280;25997;50.214;19.354;2023-04-28T00:11:08;98228.03;;;6.23;39.24
40285;BME280;25997;50.214;19.354;2023-04-28T00:14:11;98227.91;;;6.20;39.06
40285;BME280;25997;50.214;19.354;2023-04-28T00:17:13;98227.00;;;6.19;39.00
40285;BME280;25997;50.214;19.354;2023-04-28T00:20:17;98231.69;;;6.26;38.96
40285;BME280;25997;50.214;19.354;2023-04-28T00:23:20;98223.72;;;6.23;39.04
40285;BME280;25997;50.214;19.354;2023-04-28T00:26:22;98229.47;;;6.16;39.45
40285;BME280;25997;50.214;19.354;2023-04-28T00:29:26;98236.00;;;5.89;40.05
40285;BME280;25997;50.214;19.354;2023-04-28T00:32:29;98244.75;;;5.72;40.41
40285;BME280;25997;50.214;19.354;2023-04-28T00:35:33;98240.94;;;5.48;41.02
40285;BME280;25997;50.214;19.354;2023-04-28T00:38:35;98235.22;;;5.37;40.99
40285;BME280;25997;50.214;19.354;2023-04-28T00:41:38;98235.13;;;5.36;41.19
40285;BME280;25997;50.214;19.354;2023-04-28T00:44:41;98232.00;;;5.43;41.00
40285;BME280;25997;50.214;19.354;2023-04-28T00:47:43;98230.53;;;5.48;40.88
40285;BME280;25997;50.214;19.354;2023-04-28T00:50:47;98227.53;;;5.58;40.49
40285;BME280;25997;50.214;19.354;2023-04-28T00:53:50;98234.16;;;5.69;40.29
40285;BME280;25997;50.214;19.354;2023-04-28T00:56:53;98237.19;;;5.78;40.23
40285;BME280;25997;50.214;19.354;2023-04-28T00:59:57;98223.66;;;5.85;40.25
40285;BME280;25997;50.214;19.354;2023-04-28T01:02:59;98230.22;;;5.77;40.75
40285;BME280;25997;50.214;19.354;2023-04-28T01:06:08;98224.13;;;5.59;40.92
40285;BME280;25997;50.214;19.354;2023-04-28T01:09:12;98227.94;;;5.48;41.30
40285;BME280;25997;50.214;19.354;2023-04-28T01:12:15;98229.78;;;5.50;40.77
40285;BME280;25997;50.214;19.354;2023-04-28T01:15:21;98232.84;;;5.59;40.48
40285;BME280;25997;50.214;19.354;2023-04-28T01:18:27;98239.47;;;5.71;40.25
40285;BME280;25997;50.214;19.354;2023-04-28T01:21:31;98240.72;;;5.79;40.28
40285;BME280;25997;50.214;19.354;2023-04-28T01:24:51;98237.91;;;5.56;40.63
40285;BME280;25997;50.214;19.354;2023-04-28T01:27:54;98234.53;;;5.24;41.28
40285;BME280;25997;50.214;19.354;2023-04-28T01:30:56;98238.19;;;4.93;41.86
40285;BME280;25997;50.214;19.354;2023-04-28T01:33:59;98242.56;;;4.77;42.30
40285;BME280;25997;50.214;19.354;2023-04-28T01:37:01;98236.44;;;4.76;42.24
40285;BME280;25997;50.214;19.354;2023-04-28T01:40:07;98237.19;;;4.74;42.46
40285;BME280;25997;50.214;19.354;2023-04-28T01:43:10;98245.97;;;4.60;42.75
40285;BME280;25997;50.214;19.354;2023-04-28T01:46:13;98235.22;;;4.54;42.85
40285;BME280;25997;50.214;19.354;2023-04-28T01:49:15;98231.16;;;4.59;42.52
40285;BME280;25997;50.214;19.354;2023-04-28T01:52:18;98220.41;;;4.69;42.16
40285;BME280;25997;50.214;19.354;2023-04-28T01:55:24;98221.00;;;4.79;41.74
40285;BME280;25997;50.214;19.354;2023-04-28T01:58:26;98228.31;;;4.86;41.68
40285;BME280;25997;50.214;19.354;2023-04-28T02:01:30;98219.38;;;4.81;41.77
40285;BME280;25997;50.214;19.354;2023-04-28T02:04:33;98225.59;;;4.69;41.96
40285;BME280;25997;50.214;19.354;2023-04-28T02:07:35;98228.19;;;4.69;41.83
40285;BME280;25997;50.214;19.354;2023-04-28T02:10:39;98222.66;;;4.77;41.52
40285;BME280;25997;50.214;19.354;2023-04-28T02:13:42;98227.19;;;4.81;41.32
40285;BME280;25997;50.214;19.354;2023-04-28T02:16:45;98219.84;;;4.90;41.12
40285;BME280;25997;50.214;19.354;2023-04-28T02:19:47;98222.91;;;5.00;40.85
40285;BME280;25997;50.214;19.354;2023-04-28T02:22:55;98219.66;;;5.04;40.76
40285;BME280;25997;50.214;19.354;2023-04-28T02:26:01;98230.06;;;5.04;40.97
40285;BME280;25997;50.214;19.354;2023-04-28T02:29:03;98225.53;;;5.00;41.04
40285;BME280;25997;50.214;19.354;2023-04-28T02:32:06;98219.50;;;4.84;41.16
40285;BME280;25997;50.214;19.354;2023-04-28T02:35:09;98217.66;;;4.66;41.59
40285;BME280;25997;50.214;19.354;2023-04-28T02:38:11;98218.25;;;4.44;41.88
40285;BME280;25997;50.214;19.354;2023-04-28T02:41:15;98223.16;;;4.22;42.73
40285;BME280;25997;50.214;19.354;2023-04-28T02:44:19;98217.34;;;4.11;42.69
40285;BME280;25997;50.214;19.354;2023-04-28T02:47:21;98214.09;;;4.15;42.41
40285;BME280;25997;50.214;19.354;2023-04-28T02:50:24;98219.47;;;4.18;42.18
40285;BME280;25997;50.214;19.354;2023-04-28T02:53:26;98215.97;;;4.18;42.20
40285;BME280;25997;50.214;19.354;2023-04-28T02:56:30;98210.16;;;4.22;42.08
40285;BME280;25997;50.214;19.354;2023-04-28T02:59:34;98207.63;;;4.24;41.96
40285;BME280;25997;50.214;19.354;2023-04-28T03:02:36;98204.31;;;4.26;41.96
40285;BME280;25997;50.214;19.354;2023-04-28T03:05:39;98207.28;;;4.34;41.87
40285;BME280;25997;50.214;19.354;2023-04-28T03:08:41;98207.94;;;4.30;42.06
40285;BME280;25997;50.214;19.354;2023-04-28T03:11:45;98203.56;;;4.29;41.98
40285;BME280;25997;50.214;19.354;2023-04-28T03:14:48;98211.84;;;4.22;42.11
40285;BME280;25997;50.214;19.354;2023-04-28T03:17:50;98201.22;;;4.17;42.16
40285;BME280;25997;50.214;19.354;2023-04-28T03:20:53;98212.72;;;4.06;42.53
40285;BME280;25997;50.214;19.354;2023-04-28T03:23:55;98207.84;;;3.96;42.71
40285;BME280;25997;50.214;19.354;2023-04-28T03:27:00;98209.31;;;3.91;42.62
40285;BME280;25997;50.214;19.354;2023-04-28T03:30:06;98212.47;;;3.85;42.90
40285;BME280;25997;50.214;19.354;2023-04-28T03:33:10;98212.84;;;3.77;43.11
40285;BME280;25997;50.214;19.354;2023-04-28T03:36:13;98211.16;;;3.77;42.84
40285;BME280;25997;50.214;19.354;2023-04-28T03:39:16;98207.09;;;3.82;42.59
40285;BME280;25997;50.214;19.354;2023-04-28T03:42:19;98205.00;;;3.91;42.46
40285;BME280;25997;50.214;19.354;2023-04-28T03:45:45;98205.91;;;3.92;42.38
40285;BME280;25997;50.214;19.354;2023-04-28T03:48:48;98201.59;;;3.92;42.67
40285;BME280;25997;50.214;19.354;2023-04-28T03:51:53;98202.50;;;3.93;42.45
40285;BME280;25997;50.214;19.354;2023-04-28T03:54:56;98196.66;;;3.97;42.55
40285;BME280;25997;50.214;19.354;2023-04-28T03:58:00;98194.06;;;3.97;42.51
40285;BME280;25997;50.214;19.354;2023-04-28T04:01:02;98196.84;;;4.00;42.63
40285;BME280;25997;50.214;19.354;2023-04-28T04:04:05;98189.50;;;4.09;42.40
40285;BME280;25997;50.214;19.354;2023-04-28T04:07:08;98184.72;;;4.16;42.50
40285;BME280;25997;50.214;19.354;2023-04-28T04:10:10;98182.38;;;4.21;42.56
40285;BME280;25997;50.214;19.354;2023-04-28T04:13:18;98188.13;;;4.32;42.24
40285;BME280;25997;50.214;19.354;2023-04-28T04:16:21;98191.94;;;4.38;42.35
40285;BME280;25997;50.214;19.354;2023-04-28T04:19:24;98190.47;;;4.43;42.31
40285;BME280;25997;50.214;19.354;2023-04-28T04:22:28;98190.94;;;4.52;42.32
40285;BME280;25997;50.214;19.354;2023-04-28T04:25:31;98189.84;;;4.65;42.06
40285;BME280;25997;50.214;19.354;2023-04-28T04:28:35;98193.69;;;4.71;42.09
40285;BME280;25997;50.214;19.354;2023-04-28T04:31:39;98196.88;;;4.82;42.07
40285;BME280;25997;50.214;19.354;2023-04-28T04:34:42;98196.56;;;4.93;41.80
40285;BME280;25997;50.214;19.354;2023-04-28T04:37:45;98194.53;;;5.04;41.70
40285;BME280;25997;50.214;19.354;2023-04-28T04:40:48;98201.22;;;5.17;41.61
40285;BME280;25997;50.214;19.354;2023-04-28T04:43:52;98208.06;;;5.32;41.60
40285;BME280;25997;50.214;19.354;2023-04-28T04:47:01;98205.31;;;5.47;41.31
40285;BME280;25997;50.214;19.354;2023-04-28T04:50:06;98208.50;;;5.59;41.28
40285;BME280;25997;50.214;19.354;2023-04-28T04:53:09;98210.13;;;5.75;41.08
40285;BME280;25997;50.214;19.354;2023-04-28T04:56:12;98203.94;;;5.90;40.91
40285;BME280;25997;50.214;19.354;2023-04-28T04:59:16;98203.81;;;6.06;40.69
40285;BME280;25997;50.214;19.354;2023-04-28T05:02:30;98204.31;;;6.17;40.56
40285;BME280;25997;50.214;19.354;2023-04-28T05:05:33;98208.72;;;6.37;40.27
40285;BME280;25997;50.214;19.354;2023-04-28T05:08:56;98211.97;;;6.51;40.16
40285;BME280;25997;50.214;19.354;2023-04-28T05:12:00;98212.63;;;6.66;40.19
40285;BME280;25997;50.214;19.354;2023-04-28T05:15:06;98220.22;;;6.80;40.17
40285;BME280;25997;50.214;19.354;2023-04-28T05:18:12;98225.97;;;6.92;40.11
40285;BME280;25997;50.214;19.354;2023-04-28T05:21:14;98215.75;;;6.97;39.96
40285;BME280;25997;50.214;19.354;2023-04-28T05:24:17;98222.06;;;7.02;40.03
40285;BME280;25997;50.214;19.354;2023-04-28T05:27:22;98218.84;;;7.09;39.80
40285;BME280;25997;50.214;19.354;2023-04-28T05:30:26;98218.19;;;7.13;39.95
40285;BME280;25997;50.214;19.354;2023-04-28T05:33:28;98226.22;;;7.18;39.61
40285;BME280;25997;50.214;19.354;2023-04-28T05:36:32;98228.50;;;7.31;39.75
40285;BME280;25997;50.214;19.354;2023-04-28T05:39:34;98215.72;;;7.38;39.60
40285;BME280;25997;50.214;19.354;2023-04-28T05:42:39;98210.31;;;7.54;39.75
40285;BME280;25997;50.214;19.354;2023-04-28T05:45:43;98214.59;;;7.73;39.42
40285;BME280;25997;50.214;19.354;2023-04-28T05:48:46;98217.81;;;7.88;38.99
40285;BME280;25997;50.214;19.354;2023-04-28T05:51:50;98205.00;;;7.96;38.75
40285;BME280;25997;50.214;19.354;2023-04-28T05:54:53;98220.41;;;8.10;38.72
40285;BME280;25997;50.214;19.354;2023-04-28T05:57:55;98220.22;;;8.28;38.56
40285;BME280;25997;50.214;19.354;2023-04-28T06:01:01;98215.13;;;8.31;38.24
40285;BME280;25997;50.214;19.354;2023-04-28T06:04:04;98212.81;;;8.40;37.98
40285;BME280;25997;50.214;19.354;2023-04-28T06:07:07;98220.78;;;8.43;37.92
40285;BME280;25997;50.214;19.354;2023-04-28T06:10:10;98217.56;;;8.50;37.46
40285;BME280;25997;50.214;19.354;2023-04-28T06:13:12;98218.03;;;8.62;37.47
40285;BME280;25997;50.214;19.354;2023-04-28T06:16:18;98218.50;;;8.76;37.66
40285;BME280;25997;50.214;19.354;2023-04-28T06:19:23;98215.84;;;8.98;37.34
40285;BME280;25997;50.214;19.354;2023-04-28T06:22:25;98216.28;;;9.10;37.41
40285;BME280;25997;50.214;19.354;2023-04-28T06:25:28;98222.88;;;9.24;37.23
40285;BME280;25997;50.214;19.354;2023-04-28T06:28:30;98216.94;;;9.29;37.07
40285;BME280;25997;50.214;19.354;2023-04-28T06:31:34;98215.53;;;9.39;37.01
40285;BME280;25997;50.214;19.354;2023-04-28T06:34:37;98220.00;;;9.42;36.93
40285;BME280;25997;50.214;19.354;2023-04-28T06:37:40;98221.16;;;9.51;36.85
40285;BME280;25997;50.214;19.354;2023-04-28T06:40:43;98224.09;;;9.60;36.75
40285;BME280;25997;50.214;19.354;2023-04-28T06:43:46;98220.81;;;9.67;36.58
40285;BME280;25997;50.214;19.354;2023-04-28T06:46:55;98218.47;;;9.75;36.12
40285;BME280;25997;50.214;19.354;2023-04-28T06:49:58;98218.19;;;9.94;36.48
40285;BME280;25997;50.214;19.354;2023-04-28T06:53:02;98209.94;;;10.09;36.13
40285;BME280;25997;50.214;19.354;2023-04-28T06:56:04;98212.41;;;10.32;36.30
40285;BME280;25997;50.214;19.354;2023-04-28T06:59:07;98213.88;;;10.52;35.55
40285;BME280;25997;50.214;19.354;2023-04-28T07:02:12;98215.03;;;10.62;35.00
40285;BME280;25997;50.214;19.354;2023-04-28T07:05:15;98212.63;;;10.69;33.89
40285;BME280;25997;50.214;19.354;2023-04-28T07:08:17;98208.53;;;10.79;34.28
40285;BME280;25997;50.214;19.354;2023-04-28T07:11:20;98212.59;;;11.01;34.21
40285;BME280;25997;50.214;19.354;2023-04-28T07:14:23;98209.81;;;11.26;33.35
40285;BME280;25997;50.214;19.354;2023-04-28T07:17:27;98208.94;;;11.60;33.55
40285;BME280;25997;50.214;19.354;2023-04-28T07:20:29;98202.59;;;11.89;32.67
40285;BME280;25997;50.214;19.354;2023-04-28T07:23:32;98200.25;;;11.99;32.93
40285;BME280;25997;50.214;19.354;2023-04-28T07:26:34;98192.09;;;12.26;32.82
40285;BME280;25997;50.214;19.354;2023-04-28T07:29:37;98193.31;;;12.42;32.42
40285;BME280;25997;50.214;19.354;2023-04-28T07:32:41;98187.44;;;12.55;32.28
40285;BME280;25997;50.214;19.354;2023-04-28T07:35:43;98186.75;;;12.65;32.06
40285;BME280;25997;50.214;19.354;2023-04-28T07:38:46;98180.47;;;12.58;31.83
40285;BME280;25997;50.214;19.354;2023-04-28T07:41:49;98181.63;;;12.29;28.82
40285;BME280;25997;50.214;19.354;2023-04-28T07:44:52;98184.44;;;12.38;30.94
40285;BME280;25997;50.214;19.354;2023-04-28T07:47:56;98177.81;;;12.55;30.98
40285;BME280;25997;50.214;19.354;2023-04-28T07:50:58;98182.09;;;12.52;28.73
40285;BME280;25997;50.214;19.354;2023-04-28T07:54:00;98172.19;;;12.40;29.63
40285;BME280;25997;50.214;19.354;2023-04-28T07:57:03;98174.06;;;12.07;29.30
40285;BME280;25997;50.214;19.354;2023-04-28T08:00:07;98182.53;;;12.31;29.99
40285;BME280;25997;50.214;19.354;2023-04-28T08:03:17;98186.97;;;12.34;29.23
40285;BME280;25997;50.214;19.354;2023-04-28T08:06:19;98187.03;;;12.35;29.57
40285;BME280;25997;50.214;19.354;2023-04-28T08:09:21;98178.66;;;12.54;29.64
40285;BME280;25997;50.214;19.354;2023-04-28T08:12:24;98176.09;;;13.02;29.75
40285;BME280;25997;50.214;19.354;2023-04-28T08:15:27;98175.41;;;13.64;29.89
40285;BME280;25997;50.214;19.354;2023-04-28T08:18:31;98171.72;;;14.09;29.40
40285;BME280;25997;50.214;19.354;2023-04-28T08:21:33;98170.13;;;14.20;29.67
40285;BME280;25997;50.214;19.354;2023-04-28T08:24:36;98170.44;;;14.41;29.05
40285;BME280;25997;50.214;19.354;2023-04-28T08:27:38;98169.63;;;14.48;29.24
40285;BME280;25997;50.214;19.354;2023-04-28T08:30:41;98160.16;;;14.64;29.01
40285;BME280;25997;50.214;19.354;2023-04-28T08:33:45;98154.81;;;14.62;27.65
40285;BME280;25997;50.214;19.354;2023-04-28T08:36:51;98159.63;;;14.24;27.95
40285;BME280;25997;50.214;19.354;2023-04-28T08:39:54;98163.91;;;14.15;27.95
40285;BME280;25997;50.214;19.354;2023-04-28T08:43:02;98150.84;;;14.24;28.18
40285;BME280;25997;50.214;19.354;2023-04-28T08:46:06;98158.06;;;14.37;28.67
40285;BME280;25997;50.214;19.354;2023-04-28T08:49:13;98153.00;;;13.94;27.30
40285;BME280;25997;50.214;19.354;2023-04-28T08:52:16;98155.56;;;13.86;28.20
40285;BME280;25997;50.214;19.354;2023-04-28T08:55:20;98158.00;;;13.74;27.87
40285;BME280;25997;50.214;19.354;2023-04-28T08:58:24;98147.59;;;13.85;28.02
40285;BME280;25997;50.214;19.354;2023-04-28T09:01:26;98142.28;;;13.83;27.89
40285;BME280;25997;50.214;19.354;2023-04-28T09:04:30;98143.56;;;14.08;26.81
40285;BME280;25997;50.214;19.354;2023-04-28T09:07:33;98141.69;;;13.99;28.02
40285;BME280;25997;50.214;19.354;2023-04-28T09:10:36;98135.16;;;14.38;27.61
40285;BME280;25997;50.214;19.354;2023-04-28T09:13:39;98132.72;;;14.54;28.10
40285;BME280;25997;50.214;19.354;2023-04-28T09:16:42;98138.78;;;14.47;27.03
40285;BME280;25997;50.214;19.354;2023-04-28T09:19:46;98131.50;;;14.26;27.02
40285;BME280;25997;50.214;19.354;2023-04-28T09:22:50;98123.81;;;14.46;27.49
40285;BME280;25997;50.214;19.354;2023-04-28T09:25:58;98122.44;;;14.80;25.95
40285;BME280;25997;50.214;19.354;2023-04-28T09:29:11;98114.38;;;14.68;25.38
40285;BME280;25997;50.214;19.354;2023-04-28T09:32:16;98124.59;;;14.39;26.43
40285;BME280;25997;50.214;19.354;2023-04-28T09:35:37;98119.44;;;14.51;26.41
40285;BME280;25997;50.214;19.354;2023-04-28T09:38:43;98115.91;;;14.49;25.75
40285;BME280;25997;50.214;19.354;2023-04-28T09:41:46;98102.91;;;14.64;27.06
40285;BME280;25997;50.214;19.354;2023-04-28T09:44:52;98100.72;;;15.07;26.09
40285;BME280;25997;50.214;19.354;2023-04-28T09:48:08;98096.53;;;15.34;25.23
40285;BME280;25997;50.214;19.354;2023-04-28T09:51:19;98088.91;;;15.70;26.50
40285;BME280;25997;50.214;19.354;2023-04-28T09:54:23;98088.25;;;16.11;27.04
40285;BME280;25997;50.214;19.354;2023-04-28T09:57:29;98084.94;;;16.69;27.62
40285;BME280;25997;50.214;19.354;2023-04-28T10:00:32;98088.59;;;17.30;26.99
40285;BME280;25997;50.214;19.354;2023-04-28T10:03:36;98085.06;;;17.30;25.28
40285;BME280;25997;50.214;19.354;2023-04-28T10:06:41;98078.88;;;17.26;26.63
40285;BME280;25997;50.214;19.354;2023-04-28T10:09:46;98070.84;;;17.70;26.59
40285;BME280;25997;50.214;19.354;2023-04-28T10:12:50;98066.38;;;18.08;25.87
40285;BME280;25997;50.214;19.354;2023-04-28T10:15:53;98062.56;;;18.65;25.79
40285;BME280;25997;50.214;19.354;2023-04-28T10:18:58;98073.31;;;18.36;24.32
40285;BME280;25997;50.214;19.354;2023-04-28T10:22:13;98074.38;;;17.95;22.10
40285;BME280;25997;50.214;19.354;2023-04-28T10:25:26;98060.72;;;18.76;24.61
40285;BME280;25997;50.214;19.354;2023-04-28T10:28:28;98057.81;;;19.15;25.29
40285;BME280;25997;50.214;19.354;2023-04-28T10:31:31;98057.09;;;18.91;24.70
40285;BME280;25997;50.214;19.354;2023-04-28T10:34:34;98046.63;;;18.59;25.31
40285;BME280;25997;50.214;19.354;2023-04-28T10:38:05;98044.38;;;19.35;23.46
40285;BME280;25997;50.214;19.354;2023-04-28T10:41:31;98043.66;;;20.06;22.52
40285;BME280;25997;50.214;19.354;2023-04-28T10:44:43;98041.66;;;19.38;21.70
40285;BME280;25997;50.214;19.354;2023-04-28T10:48:00;98037.53;;;18.96;21.75
40285;BME280;25997;50.214;19.354;2023-04-28T10:51:22;98031.53;;;18.69;21.59
40285;BME280;25997;50.214;19.354;2023-04-28T10:54:26;98028.88;;;18.58;25.03
40285;BME280;25997;50.214;19.354;2023-04-28T10:57:30;98023.50;;;19.79;24.80
40285;BME280;25997;50.214;19.354;2023-04-28T11:00:32;98013.69;;;20.53;23.62
40285;BME280;25997;50.214;19.354;2023-04-28T11:03:47;98020.34;;;19.33;21.46
40285;BME280;25997;50.214;19.354;2023-04-28T11:07:08;98010.31;;;19.66;21.13
40285;BME280;25997;50.214;19.354;2023-04-28T11:10:12;98009.59;;;19.49;23.36
40285;BME280;25997;50.214;19.354;2023-04-28T11:13:24;98002.81;;;19.10;21.05
40285;BME280;25997;50.214;19.354;2023-04-28T11:16:27;98000.13;;;19.11;23.30
40285;BME280;25997;50.214;19.354;2023-04-28T11:19:30;98001.34;;;18.73;22.70
40285;BME280;25997;50.214;19.354;2023-04-28T11:22:33;98000.53;;;18.57;23.95
40285;BME280;25997;50.214;19.354;2023-04-28T11:25:54;97992.03;;;19.25;23.81
40285;BME280;25997;50.214;19.354;2023-04-28T11:28:57;97983.44;;;20.54;23.67
40285;BME280;25997;50.214;19.354;2023-04-28T11:32:00;97981.81;;;21.55;23.27
40285;BME280;25997;50.214;19.354;2023-04-28T11:35:04;97979.50;;;21.81;22.71
40285;BME280;25997;50.214;19.354;2023-04-28T11:38:09;97980.31;;;20.86;22.45
40285;BME280;25997;50.214;19.354;2023-04-28T11:41:13;97982.75;;;20.38;22.63
40285;BME280;25997;50.214;19.354;2023-04-28T11:44:17;97977.81;;;20.73;22.43
40285;BME280;25997;50.214;19.354;2023-04-28T11:47:30;97970.72;;;21.75;22.19
40285;BME280;25997;50.214;19.354;2023-04-28T11:50:36;97974.44;;;22.52;22.16
40285;BME280;25997;50.214;19.354;2023-04-28T11:53:42;97974.50;;;22.88;21.36
40285;BME280;25997;50.214;19.354;2023-04-28T11:56:46;97967.69;;;22.75;21.82
40285;BME280;25997;50.214;19.354;2023-04-28T11:59:49;97966.31;;;22.56;20.60
40285;BME280;25997;50.214;19.354;2023-04-28T12:02:51;97956.94;;;22.37;21.67
40285;BME280;25997;50.214;19.354;2023-04-28T12:05:54;97947.81;;;23.21;21.99
40285;BME280;25997;50.214;19.354;2023-04-28T12:08:57;97954.16;;;23.84;21.59
40285;BME280;25997;50.214;19.354;2023-04-28T12:12:07;97947.91;;;24.44;20.87
40285;BME280;25997;50.214;19.354;2023-04-28T12:15:10;97946.59;;;25.12;20.33
40285;BME280;25997;50.214;19.354;2023-04-28T12:18:12;97940.41;;;23.62;18.73
40285;BME280;25997;50.214;19.354;2023-04-28T12:21:20;97931.03;;;22.77;20.31
40285;BME280;25997;50.214;19.354;2023-04-28T12:24:22;97940.50;;;22.15;19.58
40285;BME280;25997;50.214;19.354;2023-04-28T12:27:28;97926.72;;;22.32;19.87
40285;BME280;25997;50.214;19.354;2023-04-28T12:30:33;97918.75;;;22.31;20.52
40285;BME280;25997;50.214;19.354;2023-04-28T12:33:38;97919.09;;;22.90;20.28
40285;BME280;25997;50.214;19.354;2023-04-28T12:36:41;97913.56;;;22.61;20.42
40285;BME280;25997;50.214;19.354;2023-04-28T12:39:45;97898.88;;;22.01;20.34
40285;BME280;25997;50.214;19.354;2023-04-28T12:42:49;97903.38;;;20.54;20.41
40285;BME280;25997;50.214;19.354;2023-04-28T12:45:52;97907.78;;;19.95;20.98
40285;BME280;25997;50.214;19.354;2023-04-28T12:48:55;97903.84;;;20.80;21.34
40285;BME280;25997;50.214;19.354;2023-04-28T12:51:58;97891.84;;;21.97;20.79
40285;BME280;25997;50.214;19.354;2023-04-28T12:55:00;97890.94;;;22.74;20.52
40285;BME280;25997;50.214;19.354;2023-04-28T12:58:04;97878.53;;;23.70;20.34
40285;BME280;25997;50.214;19.354;2023-04-28T13:01:06;97878.44;;;24.61;20.34
40285;BME280;25997;50.214;19.354;2023-04-28T13:04:09;97878.53;;;25.61;19.75
40285;BME280;25997;50.214;19.354;2023-04-28T13:07:13;97887.97;;;24.71;18.60
40285;BME280;25997;50.214;19.354;2023-04-28T13:10:16;97874.94;;;23.71;18.38
40285;BME280;25997;50.214;19.354;2023-04-28T13:13:20;97865.88;;;23.74;19.39
40285;BME280;25997;50.214;19.354;2023-04-28T13:16:22;97867.09;;;23.94;19.14
40285;BME280;25997;50.214;19.354;2023-04-28T13:19:28;97865.66;;;24.95;19.14
40285;BME280;25997;50.214;19.354;2023-04-28T13:22:31;97859.47;;;25.42;19.74
40285;BME280;25997;50.214;19.354;2023-04-28T13:25:34;97865.88;;;25.64;18.67
40285;BME280;25997;50.214;19.354;2023-04-28T13:28:38;97852.56;;;24.84;18.08
40285;BME280;25997;50.214;19.354;2023-04-28T13:31:40;97864.34;;;23.97;18.75
40285;BME280;25997;50.214;19.354;2023-04-28T13:34:43;97847.38;;;23.66;18.96
40285;BME280;25997;50.214;19.354;2023-04-28T13:37:45;97841.66;;;23.78;18.49
40285;BME280;25997;50.214;19.354;2023-04-28T13:40:48;97838.88;;;24.40;18.49
40285;BME280;25997;50.214;19.354;2023-04-28T13:43:52;97836.84;;;24.46;17.79
40285;BME280;25997;50.214;19.354;2023-04-28T13:46:55;97833.38;;;24.15;18.13
40285;BME280;25997;50.214;19.354;2023-04-28T13:49:57;97828.38;;;24.30;18.11
40285;BME280;25997;50.214;19.354;2023-04-28T13:53:00;97826.16;;;24.71;18.42
40285;BME280;25997;50.214;19.354;2023-04-28T13:56:03;97827.78;;;24.21;17.60
40285;BME280;25997;50.214;19.354;2023-04-28T13:59:08;97836.63;;;23.66;17.29
40285;BME280;25997;50.214;19.354;2023-04-28T14:02:10;97811.75;;;23.61;17.65
40285;BME280;25997;50.214;19.354;2023-04-28T14:05:13;97801.63;;;23.41;18.12
40285;BME280;25997;50.214;19.354;2023-04-28T14:08:16;97810.28;;;23.80;18.29
40285;BME280;25997;50.214;19.354;2023-04-28T14:11:19;97795.63;;;23.92;18.17
40285;BME280;25997;50.214;19.354;2023-04-28T14:14:23;97793.28;;;24.64;17.73
40285;BME280;25997;50.214;19.354;2023-04-28T14:17:27;97797.44;;;25.24;17.59
40285;BME280;25997;50.214;19.354;2023-04-28T14:20:29;97798.75;;;25.83;17.29
40285;BME280;25997;50.214;19.354;2023-04-28T14:23:32;97801.34;;;25.63;16.98
40285;BME280;25997;50.214;19.354;2023-04-28T14:26:35;97802.34;;;24.06;17.56
40285;BME280;25997;50.214;19.354;2023-04-28T14:29:39;97791.25;;;23.58;18.33
40285;BME280;25997;50.214;19.354;2023-04-28T14:32:42;97792.13;;;23.30;18.16
40285;BME280;25997;50.214;19.354;2023-04-28T14:35:45;97783.47;;;23.51;18.78
40285;BME280;25997;50.214;19.354;2023-04-28T14:38:47;97781.66;;;24.38;18.33
40285;BME280;25997;50.214;19.354;2023-04-28T14:41:49;97782.31;;;24.44;18.47
40285;BME280;25997;50.214;19.354;2023-04-28T14:44:53;97780.56;;;24.95;18.22
40285;BME280;25997;50.214;19.354;2023-04-28T14:47:56;97776.22;;;25.39;18.18
40285;BME280;25997;50.214;19.354;2023-04-28T14:50:59;97771.38;;;25.26;15.78
40285;BME280;25997;50.214;19.354;2023-04-28T14:54:01;97778.47;;;24.51;17.77
40285;BME280;25997;50.214;19.354;2023-04-28T14:57:04;97778.31;;;25.31;17.78
40285;BME280;25997;50.214;19.354;2023-04-28T15:00:09;97779.78;;;25.17;16.96
40285;BME280;25997;50.214;19.354;2023-04-28T15:03:12;97782.97;;;23.97;17.21
40285;BME280;25997;50.214;19.354;2023-04-28T15:06:15;97770.84;;;22.93;17.66
40285;BME280;25997;50.214;19.354;2023-04-28T15:09:17;97768.78;;;22.35;18.50
40285;BME280;25997;50.214;19.354;2023-04-28T15:12:20;97764.53;;;22.27;18.99
40285;BME280;25997;50.214;19.354;2023-04-28T15:15:24;97776.13;;;22.95;18.29
40285;BME280;25997;50.214;19.354;2023-04-28T15:18:27;97778.16;;;23.17;18.43
40285;BME280;25997;50.214;19.354;2023-04-28T15:21:29;97770.81;;;22.61;18.35
40285;BME280;25997;50.214;19.354;2023-04-28T15:24:32;97765.88;;;22.43;18.69
40285;BME280;25997;50.214;19.354;2023-04-28T15:27:34;97766.22;;;22.29;18.93
40285;BME280;25997;50.214;19.354;2023-04-28T15:30:38;97762.22;;;22.47;18.50
40285;BME280;25997;50.214;19.354;2023-04-28T15:33:41;97752.75;;;22.69;18.82
40285;BME280;25997;50.214;19.354;2023-04-28T15:36:44;97757.25;;;22.33;18.75
40285;BME280;25997;50.214;19.354;2023-04-28T15:39:46;97756.16;;;22.05;18.75
40285;BME280;25997;50.214;19.354;2023-04-28T15:42:49;97758.94;;;21.19;18.96
40285;BME280;25997;50.214;19.354;2023-04-28T15:45:54;97752.50;;;20.87;19.14
40285;BME280;25997;50.214;19.354;2023-04-28T15:48:57;97748.88;;;20.40;19.25
40285;BME280;25997;50.214;19.354;2023-04-28T15:51:59;97744.69;;;20.26;19.38
40285;BME280;25997;50.214;19.354;2023-04-28T15:55:02;97739.84;;;19.94;19.55
40285;BME280;25997;50.214;19.354;2023-04-28T15:58:05;97734.03;;;19.71;19.52
40285;BME280;25997;50.214;19.354;2023-04-28T16:01:10;97734.75;;;19.82;19.72
40285;BME280;25997;50.214;19.354;2023-04-28T16:04:12;97732.00;;;19.86;19.71
40285;BME280;25997;50.214;19.354;2023-04-28T16:07:15;97724.09;;;19.82;19.76
40285;BME280;25997;50.214;19.354;2023-04-28T16:10:19;97722.66;;;19.58;20.04